sensor_id;sensor_type;location;lat;lon;timestamp;P1;durP1;ratioP1;P2;durP2;ratioP2
68438;SDS011;55421;51.600;5.718;2023-08-20T00:00:36;12.30;;;8.40;;
68438;SDS011;55421;51.600;5.718;2023-08-20T00:03:24;14.60;;;8.50;;
68438;SDS011;55421;51.600;5.718;2023-08-20T00:05:51;14.60;;;8.40;;
68438;SDS011;55421;51.600;5.718;2023-08-20T00:08:18;11.50;;;7.40;;
68438;SDS011;55421;51.600;5.718;2023-08-20T00:10:45;11.90;;;7.40;;
68438;SDS011;55421;51.600;5.718;2023-08-20T00:13:11;13.80;;;8.00;;
68438;SDS011;55421;51.600;5.718;2023-08-20T00:15:38;10.00;;;7.80;;
68438;SDS011;55421;51.600;5.718;2023-08-20T00:18:05;13.20;;;7.40;;
68438;SDS011;55421;51.600;5.718;2023-08-20T00:20:33;14.30;;;8.80;;
68438;SDS011;55421;51.600;5.718;2023-08-20T00:23:00;14.10;;;8.20;;
68438;SDS011;55421;51.600;5.718;2023-08-20T00:25:27;9.90;;;7.80;;
68438;SDS011;55421;51.600;5.718;2023-08-20T00:27:54;12.10;;;7.70;;
68438;SDS011;55421;51.600;5.718;2023-08-20T00:30:21;9.10;;;7.60;;
68438;SDS011;55421;51.600;5.718;2023-08-20T00:32:48;16.70;;;10.00;;
68438;SDS011;55421;51.600;5.718;2023-08-20T00:35:14;14.30;;;9.50;;
68438;SDS011;55421;51.600;5.718;2023-08-20T00:37:41;14.60;;;7.40;;
68438;SDS011;55421;51.600;5.718;2023-08-20T00:40:08;13.90;;;8.10;;
68438;SDS011;55421;51.600;5.718;2023-08-20T00:42:36;15.10;;;8.80;;
68438;SDS011;55421;51.600;5.718;2023-08-20T00:45:04;13.00;;;9.30;;
68438;SDS011;55421;51.600;5.718;2023-08-20T00:47:31;16.40;;;8.70;;
68438;SDS011;55421;51.600;5.718;2023-08-20T00:49:58;13.10;;;8.50;;
68438;SDS011;55421;51.600;5.718;2023-08-20T00:52:25;12.30;;;8.80;;
68438;SDS011;55421;51.600;5.718;2023-08-20T00:54:52;11.50;;;8.80;;
68438;SDS011;55421;51.600;5.718;2023-08-20T00:57:22;10.90;;;8.80;;
68438;SDS011;55421;51.600;5.718;2023-08-20T00:59:50;11.20;;;8.80;;
68438;SDS011;55421;51.600;5.718;2023-08-20T01:02:17;12.90;;;8.90;;
68438;SDS011;55421;51.600;5.718;2023-08-20T01:04:46;13.60;;;9.00;;
68438;SDS011;55421;51.600;5.718;2023-08-20T01:07:39;10.90;;;9.20;;
68438;SDS011;55421;51.600;5.718;2023-08-20T01:10:21;13.10;;;9.70;;
68438;SDS011;55421;51.600;5.718;2023-08-20T01:12:56;12.80;;;9.30;;
68438;SDS011;55421;51.600;5.718;2023-08-20T01:15:24;10.90;;;9.00;;
68438;SDS011;55421;51.600;5.718;2023-08-20T01:17:50;14.40;;;9.40;;
68438;SDS011;55421;51.600;5.718;2023-08-20T01:20:18;9.90;;;8.40;;
68438;SDS011;55421;51.600;5.718;2023-08-20T01:23:05;14.10;;;9.50;;
68438;SDS011;55421;51.600;5.718;2023-08-20T01:29:22;12.20;;;8.80;;
68438;SDS011;55421;51.600;5.718;2023-08-20T01:31:49;16.00;;;10.10;;
68438;SDS011;55421;51.600;5.718;2023-08-20T01:34:18;15.80;;;11.10;;
68438;SDS011;55421;51.600;5.718;2023-08-20T01:36:45;22.90;;;10.80;;
68438;SDS011;55421;51.600;5.718;2023-08-20T01:39:11;15.60;;;10.00;;
68438;SDS011;55421;51.600;5.718;2023-08-20T01:41:38;14.70;;;10.20;;
68438;SDS011;55421;51.600;5.718;2023-08-20T01:44:04;13.90;;;10.50;;
68438;SDS011;55421;51.600;5.718;2023-08-20T01:46:31;13.80;;;10.20;;
68438;SDS011;55421;51.600;5.718;2023-08-20T01:48:57;18.30;;;10.90;;
68438;SDS011;55421;51.600;5.718;2023-08-20T01:51:25;17.00;;;11.40;;
68438;SDS011;55421;51.600;5.718;2023-08-20T01:53:51;17.80;;;11.50;;
68438;SDS011;55421;51.600;5.718;2023-08-20T01:56:18;16.50;;;11.90;;
68438;SDS011;55421;51.600;5.718;2023-08-20T01:58:44;16.00;;;11.30;;
68438;SDS011;55421;51.600;5.718;2023-08-20T02:01:11;18.20;;;11.60;;
68438;SDS011;55421;51.600;5.718;2023-08-20T02:03:37;14.90;;;11.90;;
68438;SDS011;55421;51.600;5.718;2023-08-20T02:06:05;14.80;;;11.10;;
68438;SDS011;55421;51.600;5.718;2023-08-20T02:08:32;19.70;;;12.30;;
68438;SDS011;55421;51.600;5.718;2023-08-20T02:11:02;17.60;;;12.50;;
68438;SDS011;55421;51.600;5.718;2023-08-20T02:13:30;18.10;;;12.00;;
68438;SDS011;55421;51.600;5.718;2023-08-20T02:16:01;17.10;;;12.70;;
68438;SDS011;55421;51.600;5.718;2023-08-20T02:18:30;17.70;;;13.10;;
68438;SDS011;55421;51.600;5.718;2023-08-20T02:20:57;17.50;;;11.70;;
68438;SDS011;55421;51.600;5.718;2023-08-20T02:23:24;15.30;;;11.70;;
68438;SDS011;55421;51.600;5.718;2023-08-20T02:25:50;16.70;;;11.80;;
68438;SDS011;55421;51.600;5.718;2023-08-20T02:28:17;17.70;;;11.50;;
68438;SDS011;55421;51.600;5.718;2023-08-20T02:30:45;14.80;;;11.50;;
68438;SDS011;55421;51.600;5.718;2023-08-20T02:33:13;17.90;;;11.70;;
68438;SDS011;55421;51.600;5.718;2023-08-20T02:35:39;20.10;;;12.00;;
68438;SDS011;55421;51.600;5.718;2023-08-20T02:38:06;15.00;;;11.60;;
68438;SDS011;55421;51.600;5.718;2023-08-20T02:40:39;13.10;;;11.10;;
68438;SDS011;55421;51.600;5.718;2023-08-20T02:43:07;15.50;;;11.70;;
68438;SDS011;55421;51.600;5.718;2023-08-20T02:45:42;20.40;;;12.00;;
68438;SDS011;55421;51.600;5.718;2023-08-20T02:48:09;25.60;;;12.30;;
68438;SDS011;55421;51.600;5.718;2023-08-20T02:50:36;19.40;;;11.60;;
68438;SDS011;55421;51.600;5.718;2023-08-20T02:53:02;15.00;;;11.30;;
68438;SDS011;55421;51.600;5.718;2023-08-20T02:55:30;16.50;;;11.80;;
68438;SDS011;55421;51.600;5.718;2023-08-20T02:57:58;22.60;;;12.10;;
68438;SDS011;55421;51.600;5.718;2023-08-20T03:00:25;17.40;;;12.60;;
68438;SDS011;55421;51.600;5.718;2023-08-20T03:02:51;20.30;;;12.60;;
68438;SDS011;55421;51.600;5.718;2023-08-20T03:05:18;21.40;;;12.80;;
68438;SDS011;55421;51.600;5.718;2023-08-20T03:07:44;16.10;;;12.20;;
68438;SDS011;55421;51.600;5.718;2023-08-20T03:10:11;17.20;;;12.10;;
68438;SDS011;55421;51.600;5.718;2023-08-20T03:12:38;17.00;;;12.90;;
68438;SDS011;55421;51.600;5.718;2023-08-20T03:15:05;16.60;;;12.00;;
68438;SDS011;55421;51.600;5.718;2023-08-20T03:17:33;17.10;;;11.80;;
68438;SDS011;55421;51.600;5.718;2023-08-20T03:20:00;16.30;;;11.30;;
68438;SDS011;55421;51.600;5.718;2023-08-20T03:22:27;16.10;;;12.30;;
68438;SDS011;55421;51.600;5.718;2023-08-20T03:24:54;16.80;;;12.30;;
68438;SDS011;55421;51.600;5.718;2023-08-20T03:27:20;17.00;;;11.30;;
68438;SDS011;55421;51.600;5.718;2023-08-20T03:29:47;17.20;;;11.40;;
68438;SDS011;55421;51.600;5.718;2023-08-20T03:32:13;17.10;;;11.80;;
68438;SDS011;55421;51.600;5.718;2023-08-20T03:34:40;14.50;;;11.20;;
68438;SDS011;55421;51.600;5.718;2023-08-20T03:37:06;13.40;;;11.60;;
68438;SDS011;55421;51.600;5.718;2023-08-20T03:39:33;15.00;;;11.30;;
68438;SDS011;55421;51.600;5.718;2023-08-20T03:41:59;17.00;;;11.70;;
68438;SDS011;55421;51.600;5.718;2023-08-20T03:44:26;16.50;;;11.80;;
68438;SDS011;55421;51.600;5.718;2023-08-20T03:46:52;14.50;;;11.30;;
68438;SDS011;55421;51.600;5.718;2023-08-20T03:49:19;17.50;;;10.90;;
68438;SDS011;55421;51.600;5.718;2023-08-20T03:51:45;16.20;;;10.70;;
68438;SDS011;55421;51.600;5.718;2023-08-20T03:54:11;15.10;;;11.60;;
68438;SDS011;55421;51.600;5.718;2023-08-20T03:56:38;14.60;;;11.70;;
68438;SDS011;55421;51.600;5.718;2023-08-20T03:59:05;16.30;;;11.40;;
68438;SDS011;55421;51.600;5.718;2023-08-20T04:01:32;15.20;;;10.00;;
68438;SDS011;55421;51.600;5.718;2023-08-20T04:04:00;15.40;;;10.50;;
68438;SDS011;55421;51.600;5.718;2023-08-20T04:06:26;15.30;;;11.00;;
68438;SDS011;55421;51.600;5.718;2023-08-20T04:08:52;18.20;;;11.70;;
68438;SDS011;55421;51.600;5.718;2023-08-20T04:11:19;20.00;;;11.50;;
68438;SDS011;55421;51.600;5.718;2023-08-20T04:13:45;13.90;;;11.20;;
68438;SDS011;55421;51.600;5.718;2023-08-20T04:16:12;13.80;;;10.20;;
68438;SDS011;55421;51.600;5.718;2023-08-20T04:18:39;16.40;;;10.50;;
68438;SDS011;55421;51.600;5.718;2023-08-20T04:21:06;14.00;;;11.00;;
68438;SDS011;55421;51.600;5.718;2023-08-20T04:23:33;16.80;;;11.30;;
68438;SDS011;55421;51.600;5.718;2023-08-20T04:25:59;13.40;;;10.10;;
68438;SDS011;55421;51.600;5.718;2023-08-20T04:28:26;19.10;;;10.80;;
68438;SDS011;55421;51.600;5.718;2023-08-20T04:30:53;14.40;;;11.30;;
68438;SDS011;55421;51.600;5.718;2023-08-20T04:33:20;15.00;;;10.90;;
68438;SDS011;55421;51.600;5.718;2023-08-20T04:35:48;13.00;;;10.10;;
68438;SDS011;55421;51.600;5.718;2023-08-20T04:38:17;12.80;;;10.60;;
68438;SDS011;55421;51.600;5.718;2023-08-20T04:40:47;16.80;;;11.60;;
68438;SDS011;55421;51.600;5.718;2023-08-20T04:43:15;14.20;;;11.00;;
68438;SDS011;55421;51.600;5.718;2023-08-20T04:45:42;14.50;;;10.50;;
68438;SDS011;55421;51.600;5.718;2023-08-20T04:48:08;13.80;;;10.70;;
68438;SDS011;55421;51.600;5.718;2023-08-20T04:50:35;16.00;;;10.50;;
68438;SDS011;55421;51.600;5.718;2023-08-20T04:53:01;14.10;;;9.80;;
68438;SDS011;55421;51.600;5.718;2023-08-20T04:55:28;12.40;;;10.00;;
68438;SDS011;55421;51.600;5.718;2023-08-20T04:57:55;13.80;;;10.50;;
68438;SDS011;55421;51.600;5.718;2023-08-20T05:00:22;11.60;;;10.00;;
68438;SDS011;55421;51.600;5.718;2023-08-20T05:02:48;10.00;;;8.90;;
68438;SDS011;55421;51.600;5.718;2023-08-20T05:05:15;10.70;;;9.40;;
68438;SDS011;55421;51.600;5.718;2023-08-20T05:07:42;9.60;;;8.30;;
68438;SDS011;55421;51.600;5.718;2023-08-20T05:10:08;10.00;;;8.50;;
68438;SDS011;55421;51.600;5.718;2023-08-20T05:12:36;10.10;;;8.50;;
68438;SDS011;55421;51.600;5.718;2023-08-20T05:15:03;11.10;;;9.10;;
68438;SDS011;55421;51.600;5.718;2023-08-20T05:17:30;13.50;;;9.00;;
68438;SDS011;55421;51.600;5.718;2023-08-20T05:19:57;11.30;;;9.00;;
68438;SDS011;55421;51.600;5.718;2023-08-20T05:22:23;10.30;;;9.20;;
68438;SDS011;55421;51.600;5.718;2023-08-20T05:24:50;13.30;;;9.70;;
68438;SDS011;55421;51.600;5.718;2023-08-20T05:27:16;12.40;;;9.90;;
68438;SDS011;55421;51.600;5.718;2023-08-20T05:29:43;12.10;;;10.00;;
68438;SDS011;55421;51.600;5.718;2023-08-20T05:32:10;12.20;;;10.40;;
68438;SDS011;55421;51.600;5.718;2023-08-20T05:34:36;11.70;;;8.70;;
68438;SDS011;55421;51.600;5.718;2023-08-20T05:37:03;11.40;;;8.90;;
68438;SDS011;55421;51.600;5.718;2023-08-20T05:39:36;10.10;;;8.60;;
68438;SDS011;55421;51.600;5.718;2023-08-20T05:42:04;11.60;;;8.90;;
68438;SDS011;55421;51.600;5.718;2023-08-20T05:44:31;9.50;;;8.50;;
68438;SDS011;55421;51.600;5.718;2023-08-20T05:46:58;13.60;;;10.60;;
68438;SDS011;55421;51.600;5.718;2023-08-20T05:49:25;16.20;;;11.80;;
68438;SDS011;55421;51.600;5.718;2023-08-20T05:51:51;15.10;;;11.80;;
68438;SDS011;55421;51.600;5.718;2023-08-20T05:54:18;14.50;;;12.60;;
68438;SDS011;55421;51.600;5.718;2023-08-20T05:56:45;16.90;;;12.00;;
68438;SDS011;55421;51.600;5.718;2023-08-20T05:59:11;15.60;;;12.70;;
68438;SDS011;55421;51.600;5.718;2023-08-20T06:01:38;17.30;;;13.50;;
68438;SDS011;55421;51.600;5.718;2023-08-20T06:04:04;15.50;;;12.50;;
68438;SDS011;55421;51.600;5.718;2023-08-20T06:06:31;15.50;;;13.00;;
68438;SDS011;55421;51.600;5.718;2023-08-20T06:08:57;16.30;;;12.90;;
68438;SDS011;55421;51.600;5.718;2023-08-20T06:11:24;16.70;;;13.70;;
68438;SDS011;55421;51.600;5.718;2023-08-20T06:13:50;19.70;;;15.40;;
68438;SDS011;55421;51.600;5.718;2023-08-20T06:16:17;18.20;;;13.30;;
68438;SDS011;55421;51.600;5.718;2023-08-20T06:18:43;17.80;;;14.00;;
68438;SDS011;55421;51.600;5.718;2023-08-20T06:21:10;21.50;;;14.10;;
68438;SDS011;55421;51.600;5.718;2023-08-20T06:23:36;16.60;;;13.30;;
68438;SDS011;55421;51.600;5.718;2023-08-20T06:26:03;17.70;;;13.20;;
68438;SDS011;55421;51.600;5.718;2023-08-20T06:28:29;15.60;;;12.50;;
68438;SDS011;55421;51.600;5.718;2023-08-20T06:30:56;16.30;;;12.70;;
68438;SDS011;55421;51.600;5.718;2023-08-20T06:33:23;15.50;;;12.70;;
68438;SDS011;55421;51.600;5.718;2023-08-20T06:35:49;14.50;;;12.30;;
68438;SDS011;55421;51.600;5.718;2023-08-20T06:38:16;14.90;;;12.50;;
68438;SDS011;55421;51.600;5.718;2023-08-20T06:40:42;18.10;;;13.30;;
68438;SDS011;55421;51.600;5.718;2023-08-20T06:43:09;16.50;;;12.10;;
68438;SDS011;55421;51.600;5.718;2023-08-20T06:45:35;17.60;;;12.60;;
68438;SDS011;55421;51.600;5.718;2023-08-20T06:48:02;14.10;;;11.80;;
68438;SDS011;55421;51.600;5.718;2023-08-20T06:50:28;17.80;;;10.70;;
68438;SDS011;55421;51.600;5.718;2023-08-20T06:52:55;16.30;;;10.50;;
68438;SDS011;55421;51.600;5.718;2023-08-20T06:55:21;14.20;;;10.30;;
68438;SDS011;55421;51.600;5.718;2023-08-20T06:57:48;15.90;;;9.90;;
68438;SDS011;55421;51.600;5.718;2023-08-20T07:00:14;16.30;;;10.40;;
68438;SDS011;55421;51.600;5.718;2023-08-20T07:02:42;13.50;;;8.20;;
68438;SDS011;55421;51.600;5.718;2023-08-20T07:05:08;12.50;;;7.90;;
68438;SDS011;55421;51.600;5.718;2023-08-20T07:07:35;12.70;;;6.70;;
68438;SDS011;55421;51.600;5.718;2023-08-20T07:10:02;16.50;;;7.40;;
68438;SDS011;55421;51.600;5.718;2023-08-20T07:12:29;12.90;;;5.30;;
68438;SDS011;55421;51.600;5.718;2023-08-20T07:14:56;9.70;;;4.20;;
68438;SDS011;55421;51.600;5.718;2023-08-20T07:17:22;9.30;;;4.10;;
68438;SDS011;55421;51.600;5.718;2023-08-20T07:19:49;10.20;;;4.10;;
68438;SDS011;55421;51.600;5.718;2023-08-20T07:22:15;10.70;;;3.90;;
68438;SDS011;55421;51.600;5.718;2023-08-20T07:24:42;8.90;;;4.10;;
68438;SDS011;55421;51.600;5.718;2023-08-20T07:27:08;8.40;;;4.10;;
68438;SDS011;55421;51.600;5.718;2023-08-20T07:29:39;8.00;;;4.40;;
68438;SDS011;55421;51.600;5.718;2023-08-20T07:32:07;11.00;;;4.30;;
68438;SDS011;55421;51.600;5.718;2023-08-20T07:34:33;9.10;;;4.60;;
68438;SDS011;55421;51.600;5.718;2023-08-20T07:37:00;7.30;;;4.50;;
68438;SDS011;55421;51.600;5.718;2023-08-20T07:39:28;10.20;;;5.70;;
68438;SDS011;55421;51.600;5.718;2023-08-20T07:41:54;7.90;;;4.70;;
68438;SDS011;55421;51.600;5.718;2023-08-20T07:44:21;10.00;;;5.00;;
68438;SDS011;55421;51.600;5.718;2023-08-20T07:46:47;10.40;;;3.60;;
68438;SDS011;55421;51.600;5.718;2023-08-20T07:49:14;9.90;;;4.10;;
68438;SDS011;55421;51.600;5.718;2023-08-20T07:51:40;10.20;;;4.90;;
68438;SDS011;55421;51.600;5.718;2023-08-20T07:54:06;9.50;;;4.50;;
68438;SDS011;55421;51.600;5.718;2023-08-20T07:56:33;10.70;;;4.90;;
68438;SDS011;55421;51.600;5.718;2023-08-20T07:58:59;8.50;;;4.20;;
68438;SDS011;55421;51.600;5.718;2023-08-20T08:01:26;10.80;;;4.40;;
68438;SDS011;55421;51.600;5.718;2023-08-20T08:03:53;12.10;;;4.30;;
68438;SDS011;55421;51.600;5.718;2023-08-20T08:06:19;10.10;;;4.90;;
68438;SDS011;55421;51.600;5.718;2023-08-20T08:08:47;9.50;;;4.40;;
68438;SDS011;55421;51.600;5.718;2023-08-20T08:11:14;10.00;;;4.80;;
68438;SDS011;55421;51.600;5.718;2023-08-20T08:13:40;9.20;;;4.30;;
68438;SDS011;55421;51.600;5.718;2023-08-20T08:16:07;9.60;;;5.00;;
68438;SDS011;55421;51.600;5.718;2023-08-20T08:18:33;11.20;;;4.90;;
68438;SDS011;55421;51.600;5.718;2023-08-20T08:21:00;11.40;;;5.00;;
68438;SDS011;55421;51.600;5.718;2023-08-20T08:23:27;10.40;;;4.70;;
68438;SDS011;55421;51.600;5.718;2023-08-20T08:25:54;12.00;;;3.80;;
68438;SDS011;55421;51.600;5.718;2023-08-20T08:28:20;8.00;;;3.40;;
68438;SDS011;55421;51.600;5.718;2023-08-20T08:30:47;4.40;;;3.00;;
68438;SDS011;55421;51.600;5.718;2023-08-20T08:33:13;6.20;;;2.30;;
68438;SDS011;55421;51.600;5.718;2023-08-20T08:35:40;5.60;;;2.20;;
68438;SDS011;55421;51.600;5.718;2023-08-20T08:38:06;5.30;;;2.10;;
68438;SDS011;55421;51.600;5.718;2023-08-20T08:40:33;5.10;;;2.00;;
68438;SDS011;55421;51.600;5.718;2023-08-20T08:43:00;8.90;;;2.50;;
68438;SDS011;55421;51.600;5.718;2023-08-20T08:45:28;6.30;;;2.20;;
68438;SDS011;55421;51.600;5.718;2023-08-20T08:47:55;4.80;;;2.30;;
68438;SDS011;55421;51.600;5.718;2023-08-20T08:50:22;6.40;;;2.80;;
68438;SDS011;55421;51.600;5.718;2023-08-20T08:52:51;8.70;;;2.70;;
68438;SDS011;55421;51.600;5.718;2023-08-20T08:55:19;7.70;;;2.90;;
68438;SDS011;55421;51.600;5.718;2023-08-20T08:57:46;5.50;;;2.80;;
68438;SDS011;55421;51.600;5.718;2023-08-20T09:00:13;5.90;;;3.10;;
68438;SDS011;55421;51.600;5.718;2023-08-20T09:02:40;6.60;;;2.70;;
68438;SDS011;55421;51.600;5.718;2023-08-20T09:05:07;6.30;;;2.50;;
68438;SDS011;55421;51.600;5.718;2023-08-20T09:07:33;8.10;;;3.50;;
68438;SDS011;55421;51.600;5.718;2023-08-20T09:10:00;7.00;;;3.60;;
68438;SDS011;55421;51.600;5.718;2023-08-20T09:12:26;8.10;;;3.50;;
68438;SDS011;55421;51.600;5.718;2023-08-20T09:14:54;5.40;;;2.80;;
68438;SDS011;55421;51.600;5.718;2023-08-20T09:17:25;9.10;;;3.30;;
68438;SDS011;55421;51.600;5.718;2023-08-20T09:19:55;8.30;;;3.10;;
68438;SDS011;55421;51.600;5.718;2023-08-20T09:22:26;8.10;;;3.30;;
68438;SDS011;55421;51.600;5.718;2023-08-20T09:24:55;5.60;;;3.50;;
68438;SDS011;55421;51.600;5.718;2023-08-20T09:27:23;9.60;;;3.30;;
68438;SDS011;55421;51.600;5.718;2023-08-20T09:29:54;5.90;;;2.20;;
68438;SDS011;55421;51.600;5.718;2023-08-20T09:32:27;5.00;;;2.40;;
68438;SDS011;55421;51.600;5.718;2023-08-20T09:34:55;6.70;;;3.00;;
68438;SDS011;55421;51.600;5.718;2023-08-20T09:37:24;3.40;;;2.60;;
68438;SDS011;55421;51.600;5.718;2023-08-20T09:39:51;5.40;;;2.60;;
68438;SDS011;55421;51.600;5.718;2023-08-20T09:42:18;4.00;;;2.30;;
68438;SDS011;55421;51.600;5.718;2023-08-20T09:44:46;4.80;;;1.80;;
68438;SDS011;55421;51.600;5.718;2023-08-20T09:47:16;5.00;;;2.20;;
68438;SDS011;55421;51.600;5.718;2023-08-20T09:49:47;3.90;;;1.90;;
68438;SDS011;55421;51.600;5.718;2023-08-20T09:52:40;5.50;;;2.40;;
68438;SDS011;55421;51.600;5.718;2023-08-20T09:55:16;7.80;;;2.20;;
68438;SDS011;55421;51.600;5.718;2023-08-20T09:57:47;4.30;;;1.70;;
68438;SDS011;55421;51.600;5.718;2023-08-20T10:00:14;2.60;;;1.70;;
68438;SDS011;55421;51.600;5.718;2023-08-20T10:02:42;4.70;;;1.80;;
68438;SDS011;55421;51.600;5.718;2023-08-20T10:05:10;4.70;;;1.90;;
68438;SDS011;55421;51.600;5.718;2023-08-20T10:07:39;4.40;;;1.60;;
68438;SDS011;55421;51.600;5.718;2023-08-20T10:10:07;2.80;;;1.40;;
68438;SDS011;55421;51.600;5.718;2023-08-20T10:12:36;3.00;;;1.20;;
68438;SDS011;55421;51.600;5.718;2023-08-20T10:15:07;2.80;;;1.60;;
68438;SDS011;55421;51.600;5.718;2023-08-20T10:17:37;3.50;;;1.30;;
68438;SDS011;55421;51.600;5.718;2023-08-20T10:20:05;3.90;;;1.80;;
68438;SDS011;55421;51.600;5.718;2023-08-20T10:22:43;22.50;;;2.00;;
68438;SDS011;55421;51.600;5.718;2023-08-20T10:25:12;4.10;;;1.20;;
68438;SDS011;55421;51.600;5.718;2023-08-20T10:27:49;5.60;;;1.00;;
68438;SDS011;55421;51.600;5.718;2023-08-20T10:30:19;1.40;;;0.90;;
68438;SDS011;55421;51.600;5.718;2023-08-20T10:32:53;3.50;;;0.90;;
68438;SDS011;55421;51.600;5.718;2023-08-20T10:35:27;3.00;;;0.80;;
68438;SDS011;55421;51.600;5.718;2023-08-20T10:38:12;0.80;;;0.70;;
68438;SDS011;55421;51.600;5.718;2023-08-20T10:46:20;0.60;;;0.60;;
68438;SDS011;55421;51.600;5.718;2023-08-20T10:48:54;1.20;;;0.70;;
68438;SDS011;55421;51.600;5.718;2023-08-20T10:51:27;0.90;;;0.70;;
68438;SDS011;55421;51.600;5.718;2023-08-20T10:54:03;1.40;;;0.80;;
68438;SDS011;55421;51.600;5.718;2023-08-20T10:56:47;1.80;;;0.80;;
68438;SDS011;55421;51.600;5.718;2023-08-20T10:59:28;2.10;;;0.80;;
68438;SDS011;55421;51.600;5.718;2023-08-20T11:01:59;1.60;;;0.80;;
68438;SDS011;55421;51.600;5.718;2023-08-20T11:04:31;1.90;;;0.70;;
68438;SDS011;55421;51.600;5.718;2023-08-20T11:07:01;1.80;;;0.90;;
68438;SDS011;55421;51.600;5.718;2023-08-20T11:09:30;2.50;;;0.90;;
68438;SDS011;55421;51.600;5.718;2023-08-20T11:11:58;2.90;;;0.90;;
68438;SDS011;55421;51.600;5.718;2023-08-20T11:14:25;2.70;;;0.90;;
68438;SDS011;55421;51.600;5.718;2023-08-20T11:16:51;1.50;;;0.80;;
68438;SDS011;55421;51.600;5.718;2023-08-20T11:19:19;1.80;;;0.90;;
68438;SDS011;55421;51.600;5.718;2023-08-20T11:21:48;2.50;;;0.70;;
68438;SDS011;55421;51.600;5.718;2023-08-20T11:24:15;1.40;;;0.70;;
68438;SDS011;55421;51.600;5.718;2023-08-20T11:26:43;0.90;;;0.70;;
68438;SDS011;55421;51.600;5.718;2023-08-20T11:29:14;2.60;;;0.90;;
68438;SDS011;55421;51.600;5.718;2023-08-20T11:31:50;1.00;;;0.60;;
68438;SDS011;55421;51.600;5.718;2023-08-20T11:34:18;2.80;;;1.00;;
68438;SDS011;55421;51.600;5.718;2023-08-20T11:36:45;2.20;;;0.80;;
68438;SDS011;55421;51.600;5.718;2023-08-20T11:39:12;3.60;;;0.70;;
68438;SDS011;55421;51.600;5.718;2023-08-20T11:41:40;2.00;;;0.60;;
68438;SDS011;55421;51.600;5.718;2023-08-20T11:44:09;1.20;;;0.60;;
68438;SDS011;55421;51.600;5.718;2023-08-20T11:46:43;1.50;;;0.80;;
68438;SDS011;55421;51.600;5.718;2023-08-20T11:49:11;1.50;;;0.60;;
68438;SDS011;55421;51.600;5.718;2023-08-20T11:51:40;2.00;;;0.70;;
68438;SDS011;55421;51.600;5.718;2023-08-20T11:54:10;3.00;;;0.50;;
68438;SDS011;55421;51.600;5.718;2023-08-20T11:56:50;0.80;;;0.70;;
68438;SDS011;55421;51.600;5.718;2023-08-20T11:59:20;4.90;;;0.60;;
68438;SDS011;55421;51.600;5.718;2023-08-20T12:01:51;1.20;;;0.60;;
68438;SDS011;55421;51.600;5.718;2023-08-20T12:04:18;2.00;;;0.80;;
68438;SDS011;55421;51.600;5.718;2023-08-20T12:07:05;3.00;;;0.80;;
68438;SDS011;55421;51.600;5.718;2023-08-20T12:09:40;1.50;;;0.70;;
68438;SDS011;55421;51.600;5.718;2023-08-20T12:12:08;1.40;;;0.70;;
68438;SDS011;55421;51.600;5.718;2023-08-20T12:14:35;2.90;;;0.70;;
68438;SDS011;55421;51.600;5.718;2023-08-20T12:17:03;2.80;;;0.80;;
68438;SDS011;55421;51.600;5.718;2023-08-20T12:19:29;1.30;;;0.60;;
68438;SDS011;55421;51.600;5.718;2023-08-20T12:21:56;2.70;;;0.60;;
68438;SDS011;55421;51.600;5.718;2023-08-20T12:24:22;5.40;;;0.80;;
68438;SDS011;55421;51.600;5.718;2023-08-20T12:26:49;2.50;;;0.60;;
68438;SDS011;55421;51.600;5.718;2023-08-20T12:29:16;3.20;;;0.70;;
68438;SDS011;55421;51.600;5.718;2023-08-20T12:31:42;2.10;;;0.70;;
68438;SDS011;55421;51.600;5.718;2023-08-20T12:34:09;1.30;;;0.70;;
68438;SDS011;55421;51.600;5.718;2023-08-20T12:36:35;3.10;;;0.80;;
68438;SDS011;55421;51.600;5.718;2023-08-20T12:39:03;1.00;;;0.70;;
68438;SDS011;55421;51.600;5.718;2023-08-20T12:41:31;2.10;;;0.90;;
68438;SDS011;55421;51.600;5.718;2023-08-20T12:43:58;2.90;;;1.00;;
68438;SDS011;55421;51.600;5.718;2023-08-20T12:46:25;2.80;;;1.10;;
68438;SDS011;55421;51.600;5.718;2023-08-20T12:48:51;1.90;;;0.80;;
68438;SDS011;55421;51.600;5.718;2023-08-20T12:51:18;1.20;;;0.60;;
68438;SDS011;55421;51.600;5.718;2023-08-20T12:53:44;2.70;;;0.70;;
68438;SDS011;55421;51.600;5.718;2023-08-20T12:56:11;1.80;;;0.80;;
68438;SDS011;55421;51.600;5.718;2023-08-20T12:58:38;2.50;;;0.70;;
68438;SDS011;55421;51.600;5.718;2023-08-20T13:01:05;1.50;;;0.70;;
68438;SDS011;55421;51.600;5.718;2023-08-20T13:03:32;2.00;;;0.80;;
68438;SDS011;55421;51.600;5.718;2023-08-20T13:05:58;2.60;;;0.70;;
68438;SDS011;55421;51.600;5.718;2023-08-20T13:08:26;2.00;;;0.90;;
68438;SDS011;55421;51.600;5.718;2023-08-20T13:10:54;2.40;;;0.80;;
68438;SDS011;55421;51.600;5.718;2023-08-20T13:13:22;2.80;;;0.60;;
68438;SDS011;55421;51.600;5.718;2023-08-20T13:15:53;2.60;;;0.80;;
68438;SDS011;55421;51.600;5.718;2023-08-20T13:18:21;2.00;;;0.60;;
68438;SDS011;55421;51.600;5.718;2023-08-20T13:20:54;4.10;;;0.90;;
68438;SDS011;55421;51.600;5.718;2023-08-20T13:23:20;3.70;;;0.90;;
68438;SDS011;55421;51.600;5.718;2023-08-20T13:25:47;5.70;;;1.00;;
68438;SDS011;55421;51.600;5.718;2023-08-20T13:28:13;1.90;;;0.80;;
68438;SDS011;55421;51.600;5.718;2023-08-20T13:30:40;2.40;;;0.90;;
68438;SDS011;55421;51.600;5.718;2023-08-20T13:33:07;0.80;;;0.60;;
68438;SDS011;55421;51.600;5.718;2023-08-20T13:35:34;2.00;;;0.80;;
68438;SDS011;55421;51.600;5.718;2023-08-20T13:38:00;1.50;;;0.70;;
68438;SDS011;55421;51.600;5.718;2023-08-20T13:40:27;1.50;;;0.60;;
68438;SDS011;55421;51.600;5.718;2023-08-20T13:42:53;5.60;;;0.90;;
68438;SDS011;55421;51.600;5.718;2023-08-20T13:45:20;3.50;;;0.80;;
68438;SDS011;55421;51.600;5.718;2023-08-20T13:47:46;1.10;;;0.70;;
68438;SDS011;55421;51.600;5.718;2023-08-20T13:50:13;3.00;;;1.10;;
68438;SDS011;55421;51.600;5.718;2023-08-20T13:52:39;1.40;;;0.80;;
68438;SDS011;55421;51.600;5.718;2023-08-20T13:55:06;2.50;;;1.00;;
68438;SDS011;55421;51.600;5.718;2023-08-20T13:57:34;3.20;;;0.80;;
68438;SDS011;55421;51.600;5.718;2023-08-20T14:00:00;1.80;;;0.70;;
68438;SDS011;55421;51.600;5.718;2023-08-20T14:02:27;4.00;;;0.80;;
68438;SDS011;55421;51.600;5.718;2023-08-20T14:04:53;2.00;;;0.80;;
68438;SDS011;55421;51.600;5.718;2023-08-20T14:07:20;6.00;;;1.10;;
68438;SDS011;55421;51.600;5.718;2023-08-20T14:09:46;6.80;;;1.50;;
68438;SDS011;55421;51.600;5.718;2023-08-20T14:12:13;2.40;;;0.90;;
68438;SDS011;55421;51.600;5.718;2023-08-20T14:14:39;2.30;;;0.90;;
68438;SDS011;55421;51.600;5.718;2023-08-20T14:17:06;3.00;;;1.20;;
68438;SDS011;55421;51.600;5.718;2023-08-20T14:19:32;1.90;;;0.80;;
68438;SDS011;55421;51.600;5.718;2023-08-20T14:21:58;3.50;;;0.70;;
68438;SDS011;55421;51.600;5.718;2023-08-20T14:24:25;4.20;;;1.00;;
68438;SDS011;55421;51.600;5.718;2023-08-20T14:26:51;1.40;;;0.70;;
68438;SDS011;55421;51.600;5.718;2023-08-20T14:29:18;3.70;;;0.90;;
68438;SDS011;55421;51.600;5.718;2023-08-20T14:31:44;2.50;;;1.10;;
68438;SDS011;55421;51.600;5.718;2023-08-20T14:34:11;2.10;;;0.80;;
68438;SDS011;55421;51.600;5.718;2023-08-20T14:36:37;3.70;;;1.00;;
68438;SDS011;55421;51.600;5.718;2023-08-20T14:39:05;1.80;;;1.00;;
68438;SDS011;55421;51.600;5.718;2023-08-20T14:41:32;2.10;;;1.10;;
68438;SDS011;55421;51.600;5.718;2023-08-20T14:43:59;6.70;;;1.00;;
68438;SDS011;55421;51.600;5.718;2023-08-20T14:46:25;4.10;;;1.10;;
68438;SDS011;55421;51.600;5.718;2023-08-20T14:48:52;3.70;;;1.00;;